sensor_id;sensor_type;location;lat;lon;timestamp;P1;durP1;ratioP1;P2;durP2;ratioP2
12519;SDS011;6325;49.540;8.364;2023-01-15T00:01:41;0.50;;;0.50;;
12519;SDS011;6325;49.540;8.364;2023-01-15T00:04:07;0.63;;;0.60;;
12519;SDS011;6325;49.540;8.364;2023-01-15T00:06:39;0.60;;;0.60;;
12519;SDS011;6325;49.540;8.364;2023-01-15T00:09:07;0.80;;;0.60;;
12519;SDS011;6325;49.540;8.364;2023-01-15T00:11:39;0.63;;;0.63;;
12519;SDS011;6325;49.540;8.364;2023-01-15T00:14:05;0.50;;;0.50;;
12519;SDS011;6325;49.540;8.364;2023-01-15T00:16:32;0.52;;;0.50;;
12519;SDS011;6325;49.540;8.364;2023-01-15T00:18:59;0.60;;;0.60;;
12519;SDS011;6325;49.540;8.364;2023-01-15T00:21:28;0.50;;;0.50;;
12519;SDS011;6325;49.540;8.364;2023-01-15T00:23:56;0.80;;;0.60;;
12519;SDS011;6325;49.540;8.364;2023-01-15T00:26:41;0.50;;;0.50;;
12519;SDS011;6325;49.540;8.364;2023-01-15T00:29:25;0.60;;;0.57;;
12519;SDS011;6325;49.540;8.364;2023-01-15T00:31:54;0.60;;;0.60;;
12519;SDS011;6325;49.540;8.364;2023-01-15T00:34:23;0.60;;;0.50;;
12519;SDS011;6325;49.540;8.364;2023-01-15T00:36:50;0.43;;;0.43;;
12519;SDS011;6325;49.540;8.364;2023-01-15T00:39:18;0.52;;;0.50;;
12519;SDS011;6325;49.540;8.364;2023-01-15T00:41:48;0.40;;;0.40;;
12519;SDS011;6325;49.540;8.364;2023-01-15T00:44:15;0.47;;;0.47;;
12519;SDS011;6325;49.540;8.364;2023-01-15T00:46:41;0.50;;;0.50;;
12519;SDS011;6325;49.540;8.364;2023-01-15T00:49:08;0.40;;;0.40;;
12519;SDS011;6325;49.540;8.364;2023-01-15T00:51:35;0.40;;;0.40;;
12519;SDS011;6325;49.540;8.364;2023-01-15T00:54:02;0.52;;;0.52;;
12519;SDS011;6325;49.540;8.364;2023-01-15T00:56:31;0.50;;;0.50;;
12519;SDS011;6325;49.540;8.364;2023-01-15T00:58:59;0.40;;;0.40;;
12519;SDS011;6325;49.540;8.364;2023-01-15T01:01:26;0.50;;;0.50;;
12519;SDS011;6325;49.540;8.364;2023-01-15T01:03:53;0.50;;;0.50;;
12519;SDS011;6325;49.540;8.364;2023-01-15T01:06:20;0.52;;;0.40;;
12519;SDS011;6325;49.540;8.364;2023-01-15T01:08:47;0.57;;;0.57;;
12519;SDS011;6325;49.540;8.364;2023-01-15T01:11:15;1.05;;;0.60;;
12519;SDS011;6325;49.540;8.364;2023-01-15T01:13:44;1.00;;;0.43;;
12519;SDS011;6325;49.540;8.364;2023-01-15T01:16:20;0.50;;;0.50;;
12519;SDS011;6325;49.540;8.364;2023-01-15T01:18:48;0.50;;;0.50;;
12519;SDS011;6325;49.540;8.364;2023-01-15T01:21:15;0.60;;;0.60;;
12519;SDS011;6325;49.540;8.364;2023-01-15T01:23:42;0.75;;;0.60;;
12519;SDS011;6325;49.540;8.364;2023-01-15T01:26:09;0.50;;;0.50;;
12519;SDS011;6325;49.540;8.364;2023-01-15T01:28:37;0.50;;;0.50;;
12519;SDS011;6325;49.540;8.364;2023-01-15T01:31:07;0.50;;;0.50;;
12519;SDS011;6325;49.540;8.364;2023-01-15T01:33:34;0.50;;;0.50;;
12519;SDS011;6325;49.540;8.364;2023-01-15T01:36:01;0.40;;;0.40;;
12519;SDS011;6325;49.540;8.364;2023-01-15T01:38:29;0.50;;;0.50;;
12519;SDS011;6325;49.540;8.364;2023-01-15T01:40:55;0.40;;;0.40;;
12519;SDS011;6325;49.540;8.364;2023-01-15T01:43:23;0.50;;;0.50;;
12519;SDS011;6325;49.540;8.364;2023-01-15T01:45:52;0.40;;;0.40;;
12519;SDS011;6325;49.540;8.364;2023-01-15T01:48:22;0.40;;;0.40;;
12519;SDS011;6325;49.540;8.364;2023-01-15T01:50:53;0.40;;;0.40;;
12519;SDS011;6325;49.540;8.364;2023-01-15T01:53:23;0.50;;;0.50;;
12519;SDS011;6325;49.540;8.364;2023-01-15T01:55:54;0.30;;;0.30;;
12519;SDS011;6325;49.540;8.364;2023-01-15T01:58:22;0.40;;;0.40;;
12519;SDS011;6325;49.540;8.364;2023-01-15T02:00:51;0.40;;;0.40;;
12519;SDS011;6325;49.540;8.364;2023-01-15T02:03:19;0.40;;;0.40;;
12519;SDS011;6325;49.540;8.364;2023-01-15T02:05:51;0.40;;;0.40;;
12519;SDS011;6325;49.540;8.364;2023-01-15T02:08:21;0.80;;;0.40;;
12519;SDS011;6325;49.540;8.364;2023-01-15T02:10:49;0.35;;;0.35;;
12519;SDS011;6325;49.540;8.364;2023-01-15T02:13:20;0.30;;;0.30;;
12519;SDS011;6325;49.540;8.364;2023-01-15T02:15:53;0.50;;;0.40;;
12519;SDS011;6325;49.540;8.364;2023-01-15T02:18:28;0.38;;;0.38;;
12519;SDS011;6325;49.540;8.364;2023-01-15T02:21:00;0.80;;;0.40;;
12519;SDS011;6325;49.540;8.364;2023-01-15T02:23:45;0.75;;;0.30;;
12519;SDS011;6325;49.540;8.364;2023-01-15T02:26:49;0.47;;;0.40;;
12519;SDS011;6325;49.540;8.364;2023-01-15T02:32:27;0.50;;;0.30;;
12519;SDS011;6325;49.540;8.364;2023-01-15T02:35:00;0.30;;;0.30;;
12519;SDS011;6325;49.540;8.364;2023-01-15T02:37:31;6.50;;;3.50;;
12519;SDS011;6325;49.540;8.364;2023-01-15T02:40:02;1.02;;;0.90;;
12519;SDS011;6325;49.540;8.364;2023-01-15T02:42:32;0.60;;;0.60;;
12519;SDS011;6325;49.540;8.364;2023-01-15T02:45:02;0.40;;;0.20;;
12519;SDS011;6325;49.540;8.364;2023-01-15T02:47:32;0.20;;;0.20;;
12519;SDS011;6325;49.540;8.364;2023-01-15T02:50:02;0.20;;;0.20;;
12519;SDS011;6325;49.540;8.364;2023-01-15T02:52:33;0.17;;;0.17;;
12519;SDS011;6325;49.540;8.364;2023-01-15T02:55:06;0.15;;;0.15;;
12519;SDS011;6325;49.540;8.364;2023-01-15T02:57:39;0.17;;;0.17;;
12519;SDS011;6325;49.540;8.364;2023-01-15T03:00:10;0.15;;;0.15;;
12519;SDS011;6325;49.540;8.364;2023-01-15T03:02:40;0.08;;;0.08;;
12519;SDS011;6325;49.540;8.364;2023-01-15T03:05:12;0.10;;;0.10;;
12519;SDS011;6325;49.540;8.364;2023-01-15T03:07:47;0.20;;;0.20;;
12519;SDS011;6325;49.540;8.364;2023-01-15T03:10:16;0.70;;;0.30;;
12519;SDS011;6325;49.540;8.364;2023-01-15T03:12:46;0.40;;;0.20;;
12519;SDS011;6325;49.540;8.364;2023-01-15T03:15:29;0.50;;;0.20;;
12519;SDS011;6325;49.540;8.364;2023-01-15T03:18:22;0.10;;;0.10;;
12519;SDS011;6325;49.540;8.364;2023-01-15T03:20:53;0.10;;;0.10;;
12519;SDS011;6325;49.540;8.364;2023-01-15T03:23:25;0.10;;;0.10;;
12519;SDS011;6325;49.540;8.364;2023-01-15T03:25:54;0.10;;;0.10;;
12519;SDS011;6325;49.540;8.364;2023-01-15T03:28:23;0.20;;;0.15;;
12519;SDS011;6325;49.540;8.364;2023-01-15T03:30:52;0.70;;;0.25;;
12519;SDS011;6325;49.540;8.364;2023-01-15T03:33:19;0.40;;;0.10;;
12519;SDS011;6325;49.540;8.364;2023-01-15T03:35:48;0.10;;;0.10;;
12519;SDS011;6325;49.540;8.364;2023-01-15T03:38:18;0.10;;;0.10;;
12519;SDS011;6325;49.540;8.364;2023-01-15T03:40:49;0.10;;;0.10;;
12519;SDS011;6325;49.540;8.364;2023-01-15T03:43:19;0.20;;;0.20;;
12519;SDS011;6325;49.540;8.364;2023-01-15T03:46:12;0.20;;;0.20;;
12519;SDS011;6325;49.540;8.364;2023-01-15T03:48:47;0.20;;;0.10;;
12519;SDS011;6325;49.540;8.364;2023-01-15T03:51:21;0.30;;;0.20;;
12519;SDS011;6325;49.540;8.364;2023-01-15T03:53:52;0.20;;;0.15;;
12519;SDS011;6325;49.540;8.364;2023-01-15T03:56:22;0.45;;;0.20;;
12519;SDS011;6325;49.540;8.364;2023-01-15T03:58:55;0.20;;;0.20;;
12519;SDS011;6325;49.540;8.364;2023-01-15T04:01:27;0.17;;;0.17;;
12519;SDS011;6325;49.540;8.364;2023-01-15T04:04:00;0.20;;;0.20;;
12519;SDS011;6325;49.540;8.364;2023-01-15T04:06:28;0.20;;;0.20;;
12519;SDS011;6325;49.540;8.364;2023-01-15T04:08:57;0.15;;;0.13;;
12519;SDS011;6325;49.540;8.364;2023-01-15T04:11:25;0.10;;;0.10;;
12519;SDS011;6325;49.540;8.364;2023-01-15T04:13:52;0.10;;;0.10;;
12519;SDS011;6325;49.540;8.364;2023-01-15T04:16:24;0.20;;;0.20;;
12519;SDS011;6325;49.540;8.364;2023-01-15T04:18:53;0.27;;;0.20;;
12519;SDS011;6325;49.540;8.364;2023-01-15T04:21:20;0.50;;;0.28;;
12519;SDS011;6325;49.540;8.364;2023-01-15T04:23:48;0.40;;;0.20;;
12519;SDS011;6325;49.540;8.364;2023-01-15T04:26:15;0.22;;;0.22;;
12519;SDS011;6325;49.540;8.364;2023-01-15T04:28:42;0.30;;;0.30;;
12519;SDS011;6325;49.540;8.364;2023-01-15T04:31:09;0.35;;;0.22;;
12519;SDS011;6325;49.540;8.364;2023-01-15T04:33:36;0.32;;;0.32;;
12519;SDS011;6325;49.540;8.364;2023-01-15T04:36:05;0.20;;;0.20;;
12519;SDS011;6325;49.540;8.364;2023-01-15T04:38:33;0.10;;;0.10;;
12519;SDS011;6325;49.540;8.364;2023-01-15T04:41:02;0.13;;;0.10;;
12519;SDS011;6325;49.540;8.364;2023-01-15T04:43:47;0.10;;;0.10;;
12519;SDS011;6325;49.540;8.364;2023-01-15T04:46:33;0.20;;;0.10;;
12519;SDS011;6325;49.540;8.364;2023-01-15T04:49:00;0.30;;;0.20;;
12519;SDS011;6325;49.540;8.364;2023-01-15T04:51:30;0.08;;;0.08;;
12519;SDS011;6325;49.540;8.364;2023-01-15T04:53:57;0.10;;;0.10;;
12519;SDS011;6325;49.540;8.364;2023-01-15T04:56:25;0.20;;;0.20;;
12519;SDS011;6325;49.540;8.364;2023-01-15T04:58:53;0.40;;;0.40;;
12519;SDS011;6325;49.540;8.364;2023-01-15T05:01:20;0.20;;;0.20;;
12519;SDS011;6325;49.540;8.364;2023-01-15T05:03:49;0.10;;;0.10;;
12519;SDS011;6325;49.540;8.364;2023-01-15T05:06:16;0.30;;;0.30;;
12519;SDS011;6325;49.540;8.364;2023-01-15T05:08:44;0.70;;;0.20;;
12519;SDS011;6325;49.540;8.364;2023-01-15T05:11:11;0.60;;;0.10;;
12519;SDS011;6325;49.540;8.364;2023-01-15T05:13:38;0.13;;;0.13;;
12519;SDS011;6325;49.540;8.364;2023-01-15T05:16:08;0.10;;;0.10;;
12519;SDS011;6325;49.540;8.364;2023-01-15T05:18:36;0.10;;;0.10;;
12519;SDS011;6325;49.540;8.364;2023-01-15T05:21:03;0.40;;;0.10;;
12519;SDS011;6325;49.540;8.364;2023-01-15T05:23:31;0.10;;;0.10;;
12519;SDS011;6325;49.540;8.364;2023-01-15T05:26:01;0.20;;;0.10;;
12519;SDS011;6325;49.540;8.364;2023-01-15T05:28:29;0.10;;;0.10;;
12519;SDS011;6325;49.540;8.364;2023-01-15T05:30:56;0.50;;;0.50;;
12519;SDS011;6325;49.540;8.364;2023-01-15T05:33:22;0.30;;;0.30;;
12519;SDS011;6325;49.540;8.364;2023-01-15T05:35:49;0.13;;;0.13;;
12519;SDS011;6325;49.540;8.364;2023-01-15T05:38:16;0.20;;;0.20;;
12519;SDS011;6325;49.540;8.364;2023-01-15T05:40:43;0.20;;;0.20;;
12519;SDS011;6325;49.540;8.364;2023-01-15T05:43:11;0.10;;;0.10;;
12519;SDS011;6325;49.540;8.364;2023-01-15T05:45:38;0.20;;;0.20;;
12519;SDS011;6325;49.540;8.364;2023-01-15T05:48:05;0.40;;;0.30;;
12519;SDS011;6325;49.540;8.364;2023-01-15T05:50:31;0.50;;;0.50;;
12519;SDS011;6325;49.540;8.364;2023-01-15T05:52:58;0.70;;;0.70;;
12519;SDS011;6325;49.540;8.364;2023-01-15T05:55:25;1.00;;;1.00;;
12519;SDS011;6325;49.540;8.364;2023-01-15T05:57:52;1.00;;;1.00;;
12519;SDS011;6325;49.540;8.364;2023-01-15T06:00:21;0.90;;;0.90;;
12519;SDS011;6325;49.540;8.364;2023-01-15T06:02:48;0.70;;;0.70;;
12519;SDS011;6325;49.540;8.364;2023-01-15T06:05:15;0.40;;;0.40;;
12519;SDS011;6325;49.540;8.364;2023-01-15T06:07:46;0.30;;;0.30;;
12519;SDS011;6325;49.540;8.364;2023-01-15T06:10:14;0.32;;;0.32;;
12519;SDS011;6325;49.540;8.364;2023-01-15T06:12:42;0.60;;;0.30;;
12519;SDS011;6325;49.540;8.364;2023-01-15T06:15:09;0.30;;;0.30;;
12519;SDS011;6325;49.540;8.364;2023-01-15T06:17:37;0.22;;;0.22;;
12519;SDS011;6325;49.540;8.364;2023-01-15T06:20:05;0.40;;;0.40;;
12519;SDS011;6325;49.540;8.364;2023-01-15T06:22:32;0.70;;;0.70;;
12519;SDS011;6325;49.540;8.364;2023-01-15T06:24:59;1.05;;;0.95;;
12519;SDS011;6325;49.540;8.364;2023-01-15T06:27:26;1.92;;;0.90;;
12519;SDS011;6325;49.540;8.364;2023-01-15T06:29:53;0.25;;;0.20;;
12519;SDS011;6325;49.540;8.364;2023-01-15T06:32:22;0.20;;;0.20;;
12519;SDS011;6325;49.540;8.364;2023-01-15T06:34:51;1.80;;;1.30;;
12519;SDS011;6325;49.540;8.364;2023-01-15T06:37:18;1.70;;;1.40;;
12519;SDS011;6325;49.540;8.364;2023-01-15T06:39:45;3.00;;;1.70;;
12519;SDS011;6325;49.540;8.364;2023-01-15T06:42:12;0.35;;;0.35;;
12519;SDS011;6325;49.540;8.364;2023-01-15T06:44:56;1.40;;;0.90;;
12519;SDS011;6325;49.540;8.364;2023-01-15T06:47:40;2.88;;;1.95;;
12519;SDS011;6325;49.540;8.364;2023-01-15T06:50:09;2.10;;;1.67;;
12519;SDS011;6325;49.540;8.364;2023-01-15T06:52:36;3.47;;;2.30;;
12519;SDS011;6325;49.540;8.364;2023-01-15T06:55:03;3.03;;;1.97;;
12519;SDS011;6325;49.540;8.364;2023-01-15T06:57:30;3.63;;;2.53;;
12519;SDS011;6325;49.540;8.364;2023-01-15T06:59:57;4.80;;;3.20;;
12519;SDS011;6325;49.540;8.364;2023-01-15T07:02:24;7.87;;;4.07;;
12519;SDS011;6325;49.540;8.364;2023-01-15T07:04:51;5.45;;;3.22;;
12519;SDS011;6325;49.540;8.364;2023-01-15T07:07:19;7.47;;;3.67;;
12519;SDS011;6325;49.540;8.364;2023-01-15T07:09:47;5.72;;;3.17;;
12519;SDS011;6325;49.540;8.364;2023-01-15T07:12:14;8.18;;;4.75;;
12519;SDS011;6325;49.540;8.364;2023-01-15T07:14:41;11.75;;;5.68;;
12519;SDS011;6325;49.540;8.364;2023-01-15T07:17:08;6.60;;;3.50;;
12519;SDS011;6325;49.540;8.364;2023-01-15T07:19:35;6.00;;;3.45;;
12519;SDS011;6325;49.540;8.364;2023-01-15T07:22:02;7.72;;;4.25;;
12519;SDS011;6325;49.540;8.364;2023-01-15T07:24:31;11.15;;;5.80;;
12519;SDS011;6325;49.540;8.364;2023-01-15T07:26:58;8.20;;;4.50;;
12519;SDS011;6325;49.540;8.364;2023-01-15T07:29:24;11.55;;;5.63;;
12519;SDS011;6325;49.540;8.364;2023-01-15T07:31:53;9.10;;;4.75;;
12519;SDS011;6325;49.540;8.364;2023-01-15T07:34:21;4.07;;;2.43;;
12519;SDS011;6325;49.540;8.364;2023-01-15T07:36:48;8.10;;;4.40;;
12519;SDS011;6325;49.540;8.364;2023-01-15T07:39:15;11.73;;;5.75;;
12519;SDS011;6325;49.540;8.364;2023-01-15T07:41:43;5.13;;;3.22;;
12519;SDS011;6325;49.540;8.364;2023-01-15T07:44:27;2.83;;;1.95;;
12519;SDS011;6325;49.540;8.364;2023-01-15T07:47:14;11.75;;;5.95;;
12519;SDS011;6325;49.540;8.364;2023-01-15T07:50:01;8.38;;;4.40;;
12519;SDS011;6325;49.540;8.364;2023-01-15T07:52:31;8.13;;;4.25;;
12519;SDS011;6325;49.540;8.364;2023-01-15T07:54:57;7.17;;;3.57;;
12519;SDS011;6325;49.540;8.364;2023-01-15T07:57:26;3.10;;;2.05;;
12519;SDS011;6325;49.540;8.364;2023-01-15T07:59:53;6.95;;;4.20;;
12519;SDS011;6325;49.540;8.364;2023-01-15T08:02:20;6.90;;;3.97;;
12519;SDS011;6325;49.540;8.364;2023-01-15T08:04:47;10.48;;;4.93;;
12519;SDS011;6325;49.540;8.364;2023-01-15T08:07:14;6.88;;;3.85;;
12519;SDS011;6325;49.540;8.364;2023-01-15T08:09:41;7.45;;;3.70;;
12519;SDS011;6325;49.540;8.364;2023-01-15T08:12:08;6.20;;;3.97;;
12519;SDS011;6325;49.540;8.364;2023-01-15T08:14:56;5.78;;;3.65;;
12519;SDS011;6325;49.540;8.364;2023-01-15T08:17:38;2.80;;;2.10;;
12519;SDS011;6325;49.540;8.364;2023-01-15T08:20:07;5.35;;;2.85;;
12519;SDS011;6325;49.540;8.364;2023-01-15T08:22:36;5.75;;;2.88;;
12519;SDS011;6325;49.540;8.364;2023-01-15T08:25:04;5.90;;;3.65;;
12519;SDS011;6325;49.540;8.364;2023-01-15T08:27:32;5.28;;;3.80;;
12519;SDS011;6325;49.540;8.364;2023-01-15T08:30:00;3.88;;;2.85;;
12519;SDS011;6325;49.540;8.364;2023-01-15T08:32:27;5.53;;;3.15;;
12519;SDS011;6325;49.540;8.364;2023-01-15T08:34:54;4.95;;;2.97;;
12519;SDS011;6325;49.540;8.364;2023-01-15T08:37:20;6.28;;;3.53;;
12519;SDS011;6325;49.540;8.364;2023-01-15T08:39:47;3.78;;;2.40;;
12519;SDS011;6325;49.540;8.364;2023-01-15T08:42:14;4.10;;;2.70;;
12519;SDS011;6325;49.540;8.364;2023-01-15T08:44:41;2.40;;;2.20;;
12519;SDS011;6325;49.540;8.364;2023-01-15T08:47:09;2.28;;;2.08;;
12519;SDS011;6325;49.540;8.364;2023-01-15T08:49:36;1.70;;;1.60;;
12519;SDS011;6325;49.540;8.364;2023-01-15T08:52:03;2.00;;;1.80;;
12519;SDS011;6325;49.540;8.364;2023-01-15T08:54:30;1.30;;;1.27;;
12519;SDS011;6325;49.540;8.364;2023-01-15T08:56:57;1.00;;;1.00;;
12519;SDS011;6325;49.540;8.364;2023-01-15T08:59:25;1.30;;;1.20;;
12519;SDS011;6325;49.540;8.364;2023-01-15T09:01:52;1.15;;;1.00;;
12519;SDS011;6325;49.540;8.364;2023-01-15T09:04:20;0.80;;;0.80;;
12519;SDS011;6325;49.540;8.364;2023-01-15T09:06:47;2.43;;;1.60;;
12519;SDS011;6325;49.540;8.364;2023-01-15T09:09:14;3.10;;;1.90;;
12519;SDS011;6325;49.540;8.364;2023-01-15T09:11:42;1.50;;;1.33;;
12519;SDS011;6325;49.540;8.364;2023-01-15T09:14:11;2.15;;;1.65;;
12519;SDS011;6325;49.540;8.364;2023-01-15T09:16:39;3.83;;;2.20;;
12519;SDS011;6325;49.540;8.364;2023-01-15T09:19:06;4.85;;;3.15;;
12519;SDS011;6325;49.540;8.364;2023-01-15T09:21:36;3.97;;;2.35;;
12519;SDS011;6325;49.540;8.364;2023-01-15T09:24:03;2.73;;;1.70;;
12519;SDS011;6325;49.540;8.364;2023-01-15T09:26:31;3.75;;;2.38;;
12519;SDS011;6325;49.540;8.364;2023-01-15T09:28:59;4.40;;;2.38;;
12519;SDS011;6325;49.540;8.364;2023-01-15T09:31:27;2.00;;;1.40;;
12519;SDS011;6325;49.540;8.364;2023-01-15T09:33:54;1.58;;;1.30;;
12519;SDS011;6325;49.540;8.364;2023-01-15T09:36:22;3.63;;;2.03;;
12519;SDS011;6325;49.540;8.364;2023-01-15T09:38:53;3.33;;;2.00;;
12519;SDS011;6325;49.540;8.364;2023-01-15T09:41:23;4.13;;;2.30;;
12519;SDS011;6325;49.540;8.364;2023-01-15T09:44:20;6.22;;;3.17;;
12519;SDS011;6325;49.540;8.364;2023-01-15T09:46:59;5.47;;;3.35;;
12519;SDS011;6325;49.540;8.364;2023-01-15T09:49:33;6.30;;;3.70;;
12519;SDS011;6325;49.540;8.364;2023-01-15T09:52:16;5.43;;;2.97;;
12519;SDS011;6325;49.540;8.364;2023-01-15T09:54:53;4.55;;;2.50;;
12519;SDS011;6325;49.540;8.364;2023-01-15T09:57:26;5.53;;;3.22;;
12519;SDS011;6325;49.540;8.364;2023-01-15T09:59:53;6.80;;;3.42;;
12519;SDS011;6325;49.540;8.364;2023-01-15T10:02:28;9.05;;;4.97;;
12519;SDS011;6325;49.540;8.364;2023-01-15T10:05:01;6.45;;;3.38;;
12519;SDS011;6325;49.540;8.364;2023-01-15T10:07:35;9.30;;;4.80;;
12519;SDS011;6325;49.540;8.364;2023-01-15T10:10:11;9.70;;;4.50;;
12519;SDS011;6325;49.540;8.364;2023-01-15T10:12:41;1.13;;;0.55;;
12519;SDS011;6325;49.540;8.364;2023-01-15T10:15:15;0.30;;;0.30;;
12519;SDS011;6325;49.540;8.364;2023-01-15T10:17:48;0.20;;;0.20;;
12519;SDS011;6325;49.540;8.364;2023-01-15T10:20:22;2.40;;;1.17;;
12519;SDS011;6325;49.540;8.364;2023-01-15T10:23:02;0.30;;;0.30;;
12519;SDS011;6325;49.540;8.364;2023-01-15T10:25:41;1.38;;;1.10;;
12519;SDS011;6325;49.540;8.364;2023-01-15T10:28:16;2.92;;;1.50;;
12519;SDS011;6325;49.540;8.364;2023-01-15T10:30:45;3.53;;;2.25;;
12519;SDS011;6325;49.540;8.364;2023-01-15T10:33:20;3.10;;;1.92;;
12519;SDS011;6325;49.540;8.364;2023-01-15T10:36:01;4.90;;;3.63;;
12519;SDS011;6325;49.540;8.364;2023-01-15T10:38:34;6.35;;;3.80;;
12519;SDS011;6325;49.540;8.364;2023-01-15T10:41:15;5.57;;;2.77;;
12519;SDS011;6325;49.540;8.364;2023-01-15T10:43:53;1.52;;;1.30;;
12519;SDS011;6325;49.540;8.364;2023-01-15T10:46:26;1.20;;;1.10;;
12519;SDS011;6325;49.540;8.364;2023-01-15T10:48:58;1.92;;;1.60;;
12519;SDS011;6325;49.540;8.364;2023-01-15T10:51:33;8.55;;;6.15;;
12519;SDS011;6325;49.540;8.364;2023-01-15T10:54:06;9.88;;;8.10;;
12519;SDS011;6325;49.540;8.364;2023-01-15T10:56:46;4.13;;;3.17;;
12519;SDS011;6325;49.540;8.364;2023-01-15T10:59:18;3.13;;;2.40;;
12519;SDS011;6325;49.540;8.364;2023-01-15T11:01:48;5.53;;;3.08;;
12519;SDS011;6325;49.540;8.364;2023-01-15T11:04:18;2.47;;;1.77;;
12519;SDS011;6325;49.540;8.364;2023-01-15T11:06:46;1.50;;;1.27;;
12519;SDS011;6325;49.540;8.364;2023-01-15T11:09:16;1.58;;;1.00;;
12519;SDS011;6325;49.540;8.364;2023-01-15T11:11:48;0.88;;;0.88;;
12519;SDS011;6325;49.540;8.364;2023-01-15T11:14:34;3.53;;;2.43;;
12519;SDS011;6325;49.540;8.364;2023-01-15T11:17:20;0.80;;;0.80;;
12519;SDS011;6325;49.540;8.364;2023-01-15T11:20:12;0.60;;;0.60;;
12519;SDS011;6325;49.540;8.364;2023-01-15T11:22:41;1.48;;;1.30;;
12519;SDS011;6325;49.540;8.364;2023-01-15T11:25:08;1.27;;;1.10;;
12519;SDS011;6325;49.540;8.364;2023-01-15T11:27:37;0.50;;;0.50;;
12519;SDS011;6325;49.540;8.364;2023-01-15T11:30:05;4.22;;;2.60;;
12519;SDS011;6325;49.540;8.364;2023-01-15T11:32:34;1.08;;;0.90;;
12519;SDS011;6325;49.540;8.364;2023-01-15T11:35:02;2.70;;;1.70;;
12519;SDS011;6325;49.540;8.364;2023-01-15T11:37:40;1.93;;;1.20;;
12519;SDS011;6325;49.540;8.364;2023-01-15T11:40:14;2.92;;;1.80;;
12519;SDS011;6325;49.540;8.364;2023-01-15T11:42:45;0.82;;;0.73;;
12519;SDS011;6325;49.540;8.364;2023-01-15T11:45:31;6.05;;;3.25;;
12519;SDS011;6325;49.540;8.364;2023-01-15T11:48:16;7.70;;;3.88;;
12519;SDS011;6325;49.540;8.364;2023-01-15T11:51:05;5.38;;;3.00;;
12519;SDS011;6325;49.540;8.364;2023-01-15T11:53:38;7.22;;;4.00;;
12519;SDS011;6325;49.540;8.364;2023-01-15T11:56:10;6.20;;;3.50;;
12519;SDS011;6325;49.540;8.364;2023-01-15T11:58:43;3.42;;;2.33;;
12519;SDS011;6325;49.540;8.364;2023-01-15T12:01:12;8.95;;;4.68;;
12519;SDS011;6325;49.540;8.364;2023-01-15T12:03:46;4.80;;;2.43;;
12519;SDS011;6325;49.540;8.364;2023-01-15T12:06:13;4.80;;;2.47;;
12519;SDS011;6325;49.540;8.364;2023-01-15T12:08:50;1.60;;;1.38;;
12519;SDS011;6325;49.540;8.364;2023-01-15T12:11:34;0.80;;;0.60;;
12519;SDS011;6325;49.540;8.364;2023-01-15T12:14:26;0.70;;;0.70;;
12519;SDS011;6325;49.540;8.364;2023-01-15T12:17:23;1.00;;;0.70;;
12519;SDS011;6325;49.540;8.364;2023-01-15T12:19:59;1.25;;;0.70;;
12519;SDS011;6325;49.540;8.364;2023-01-15T12:22:36;0.90;;;0.80;;
12519;SDS011;6325;49.540;8.364;2023-01-15T12:25:19;0.77;;;0.77;;
12519;SDS011;6325;49.540;8.364;2023-01-15T12:27:56;0.93;;;0.80;;
12519;SDS011;6325;49.540;8.364;2023-01-15T12:30:34;0.50;;;0.50;;
12519;SDS011;6325;49.540;8.364;2023-01-15T12:33:18;0.40;;;0.40;;
12519;SDS011;6325;49.540;8.364;2023-01-15T12:35:51;0.40;;;0.40;;
12519;SDS011;6325;49.540;8.364;2023-01-15T12:38:23;0.70;;;0.70;;
12519;SDS011;6325;49.540;8.364;2023-01-15T12:41:00;0.80;;;0.80;;
12519;SDS011;6325;49.540;8.364;2023-01-15T12:43:32;0.73;;;0.73;;
12519;SDS011;6325;49.540;8.364;2023-01-15T12:46:18;0.68;;;0.68;;
12519;SDS011;6325;49.540;8.364;2023-01-15T12:48:48;0.75;;;0.65;;
12519;SDS011;6325;49.540;8.364;2023-01-15T12:51:20;0.93;;;0.82;;
12519;SDS011;6325;49.540;8.364;2023-01-15T12:53:54;0.70;;;0.70;;
12519;SDS011;6325;49.540;8.364;2023-01-15T12:56:26;0.60;;;0.60;;
12519;SDS011;6325;49.540;8.364;2023-01-15T12:58:57;0.98;;;0.90;;
12519;SDS011;6325;49.540;8.364;2023-01-15T13:01:33;0.95;;;0.90;;
12519;SDS011;6325;49.540;8.364;2023-01-15T13:04:15;1.00;;;0.80;;
12519;SDS011;6325;49.540;8.364;2023-01-15T13:06:47;0.70;;;0.70;;
12519;SDS011;6325;49.540;8.364;2023-01-15T13:09:23;1.77;;;0.75;;
12519;SDS011;6325;49.540;8.364;2023-01-15T13:11:55;1.65;;;1.00;;
12519;SDS011;6325;49.540;8.364;2023-01-15T13:14:22;0.98;;;0.70;;
12519;SDS011;6325;49.540;8.364;2023-01-15T13:16:52;0.98;;;0.88;;
12519;SDS011;6325;49.540;8.364;2023-01-15T13:19:28;2.35;;;0.80;;
12519;SDS011;6325;49.540;8.364;2023-01-15T13:22:04;2.90;;;1.58;;
12519;SDS011;6325;49.540;8.364;2023-01-15T13:27:28;1.60;;;1.20;;
12519;SDS011;6325;49.540;8.364;2023-01-15T13:30:20;1.13;;;0.98;;
12519;SDS011;6325;49.540;8.364;2023-01-15T13:33:03;1.25;;;1.00;;
12519;SDS011;6325;49.540;8.364;2023-01-15T13:35:41;1.70;;;1.00;;
12519;SDS011;6325;49.540;8.364;2023-01-15T13:38:13;1.20;;;0.90;;
12519;SDS011;6325;49.540;8.364;2023-01-15T13:40:45;2.50;;;1.48;;
12519;SDS011;6325;49.540;8.364;2023-01-15T13:43:26;2.67;;;1.70;;
12519;SDS011;6325;49.540;8.364;2023-01-15T13:45:58;2.70;;;1.55;;
12519;SDS011;6325;49.540;8.364;2023-01-15T13:48:31;2.33;;;1.58;;
12519;SDS011;6325;49.540;8.364;2023-01-15T13:51:00;3.25;;;1.60;;
12519;SDS011;6325;49.540;8.364;2023-01-15T13:53:29;1.35;;;0.98;;
12519;SDS011;6325;49.540;8.364;2023-01-15T13:55:59;1.92;;;1.15;;
12519;SDS011;6325;49.540;8.364;2023-01-15T13:58:30;2.10;;;0.90;;
12519;SDS011;6325;49.540;8.364;2023-01-15T14:01:03;1.23;;;0.93;;
12519;SDS011;6325;49.540;8.364;2023-01-15T14:03:53;1.20;;;0.80;;
12519;SDS011;6325;49.540;8.364;2023-01-15T14:06:34;2.03;;;1.00;;
12519;SDS011;6325;49.540;8.364;2023-01-15T14:09:02;1.23;;;1.00;;
12519;SDS011;6325;49.540;8.364;2023-01-15T14:11:32;1.55;;;0.82;;
12519;SDS011;6325;49.540;8.364;2023-01-15T14:14:10;2.40;;;1.00;;
12519;SDS011;6325;49.540;8.364;2023-01-15T14:16:57;1.10;;;1.00;;
12519;SDS011;6325;49.540;8.364;2023-01-15T14:19:45;1.40;;;0.70;;
12519;SDS011;6325;49.540;8.364;2023-01-15T14:22:45;2.25;;;0.90;;
12519;SDS011;6325;49.540;8.364;2023-01-15T14:25:38;1.73;;;0.93;;
12519;SDS011;6325;49.540;8.364;2023-01-15T14:28:27;0.88;;;0.70;;
12519;SDS011;6325;49.540;8.364;2023-01-15T14:34:01;1.48;;;0.80;;
12519;SDS011;6325;49.540;8.364;2023-01-15T14:36:40;2.47;;;1.10;;
12519;SDS011;6325;49.540;8.364;2023-01-15T14:39:25;1.55;;;1.08;;
12519;SDS011;6325;49.540;8.364;2023-01-15T14:42:00;1.70;;;0.95;;
12519;SDS011;6325;49.540;8.364;2023-01-15T14:44:54;2.83;;;1.50;;
12519;SDS011;6325;49.540;8.364;2023-01-15T14:47:29;3.97;;;2.08;;
12519;SDS011;6325;49.540;8.364;2023-01-15T14:50:02;1.33;;;1.00;;
12519;SDS011;6325;49.540;8.364;2023-01-15T14:52:46;2.13;;;1.00;;
12519;SDS011;6325;49.540;8.364;2023-01-15T14:55:14;1.80;;;1.00;;
12519;SDS011;6325;49.540;8.364;2023-01-15T14:57:42;1.40;;;1.00;;
12519;SDS011;6325;49.540;8.364;2023-01-15T15:00:17;2.42;;;0.95;;
12519;SDS011;6325;49.540;8.364;2023-01-15T15:02:46;1.23;;;1.13;;
12519;SDS011;6325;49.540;8.364;2023-01-15T15:05:15;1.70;;;0.80;;
12519;SDS011;6325;49.540;8.364;2023-01-15T15:07:44;1.92;;;1.20;;
12519;SDS011;6325;49.540;8.364;2023-01-15T15:10:18;1.35;;;1.00;;
12519;SDS011;6325;49.540;8.364;2023-01-15T15:12:52;1.80;;;0.82;;
12519;SDS011;6325;49.540;8.364;2023-01-15T15:15:26;1.40;;;0.85;;
12519;SDS011;6325;49.540;8.364;2023-01-15T15:18:04;1.05;;;0.80;;
12519;SDS011;6325;49.540;8.364;2023-01-15T15:20:42;1.33;;;0.80;;
12519;SDS011;6325;49.540;8.364;2023-01-15T15:23:16;1.47;;;0.83;;
12519;SDS011;6325;49.540;8.364;2023-01-15T15:25:47;1.52;;;0.70;;
12519;SDS011;6325;49.540;8.364;2023-01-15T15:28:21;1.95;;;0.90;;
12519;SDS011;6325;49.540;8.364;2023-01-15T15:30:48;1.13;;;0.82;;
12519;SDS011;6325;49.540;8.364;2023-01-15T15:33:17;1.48;;;0.90;;
12519;SDS011;6325;49.540;8.364;2023-01-15T15:35:46;2.13;;;0.90;;
12519;SDS011;6325;49.540;8.364;2023-01-15T15:38:17;2.40;;;1.00;;